Time;durP1;ratioP1;P1;durP2;ratioP2;P2;SDS_P1;SDS_P2;PMS_P1;PMS_P2;Temp;Humidity;BMP_temperature;BMP_pressure;BME280_temperature;BME280_humidity;BME280_pressure;Samples;Min_cycle;Max_cycle;Signal;HPM_P1;HPM_P2
2022/10/04 00:01:41;;;;;;;3.30;1.60;;;12.90;99.90;;;;;;5072843;28;20473;-52
2022/10/04 00:04:13;;;;;;;2.70;1.73;;;12.90;99.90;;;;;;5071800;28;20033;-52
2022/10/04 00:06:49;;;;;;;4.03;2.35;;;12.80;99.90;;;;;;5073694;28;20036;-52
2022/10/04 00:09:22;;;;;;;3.28;1.92;;;12.80;99.90;;;;;;5073210;28;20033;-52
2022/10/04 00:11:49;;;;;;;2.83;1.80;;;12.80;99.90;;;;;;5069384;28;20119;-52
2022/10/04 00:14:31;;;;;;;4.57;2.45;;;12.70;99.90;;;;;;5073833;28;20365;-52
2022/10/04 00:16:58;;;;;;;3.40;2.10;;;12.70;99.90;;;;;;5073479;28;20063;-52
2022/10/04 00:19:44;;;;;;;4.25;2.10;;;12.70;99.90;;;;;;5073169;28;20052;-51
2022/10/04 00:22:12;;;;;;;3.70;2.00;;;12.70;99.90;;;;;;5072990;28;20510;-52
2022/10/04 00:25:01;;;;;;;4.85;1.92;;;12.80;99.90;;;;;;5073678;28;20111;-52
2022/10/04 00:27:27;;;;;;;3.65;2.05;;;12.70;99.90;;;;;;5073400;28;20020;-52
2022/10/04 00:30:02;;;;;;;4.93;2.08;;;12.60;99.90;;;;;;5073829;28;20078;-52
2022/10/04 00:32:30;;;;;;;3.97;2.20;;;12.60;99.90;;;;;;5066205;28;20090;-52
2022/10/04 00:34:58;;;;;;;4.53;2.00;;;12.60;99.90;;;;;;5050626;28;20043;-52
2022/10/04 00:37:26;;;;;;;7.90;2.13;;;12.50;99.90;;;;;;5050778;28;20033;-53
2022/10/04 00:40:14;;;;;;;3.75;1.85;;;12.50;99.90;;;;;;5051643;28;20441;-53
2022/10/04 00:43:07;;;;;;;6.63;2.20;;;12.40;99.90;;;;;;5050761;28;20106;-52
2022/10/04 00:45:35;;;;;;;3.42;1.77;;;12.40;99.90;;;;;;5047617;28;20045;-52
2022/10/04 00:48:15;;;;;;;3.47;1.70;;;12.40;99.90;;;;;;5050928;28;20025;-52
2022/10/04 00:50:46;;;;;;;5.05;2.10;;;12.40;99.90;;;;;;5045619;28;20159;-52
2022/10/04 00:53:38;;;;;;;5.32;2.10;;;12.40;99.90;;;;;;5050035;28;20041;-52
2022/10/04 00:56:10;;;;;;;4.22;2.00;;;12.30;99.90;;;;;;5048346;28;20066;-53
2022/10/04 00:58:38;;;;;;;;;;;12.20;99.90;;;;;;5036879;28;20524;-52
2022/10/04 01:01:04;;;;;;;2.63;1.45;;;12.20;99.90;;;;;;5046010;28;19956;-53
2022/10/04 01:03:37;;;;;;;6.63;1.90;;;12.20;99.90;;;;;;5046289;28;20478;-52
2022/10/04 01:06:07;;;;;;;2.70;1.60;;;12.20;99.90;;;;;;5061671;28;20037;-55
2022/10/04 01:08:37;;;;;;;2.17;1.35;;;12.20;99.90;;;;;;5068894;28;20032;-52
2022/10/04 01:11:12;;;;;;;6.13;1.67;;;12.10;99.90;;;;;;5072325;28;20706;-52
2022/10/04 01:13:44;;;;;;;2.45;1.25;;;12.10;99.90;;;;;;5072326;28;20456;-52
2022/10/04 01:16:18;;;;;;;9.30;2.60;;;12.10;99.90;;;;;;5072685;28;20527;-52
2022/10/04 01:18:44;;;;;;;3.60;1.80;;;12.10;99.90;;;;;;5072501;28;20526;-52
2022/10/04 01:21:19;;;;;;;7.40;1.92;;;12.10;99.90;;;;;;5047730;28;20032;-52
2022/10/04 01:23:57;;;;;;;2.92;1.65;;;12.10;99.90;;;;;;5046053;28;20169;-52
2022/10/04 01:26:25;;;;;;;6.60;1.63;;;12.10;99.90;;;;;;5046414;28;20500;-52
2022/10/04 01:29:17;;;;;;;2.92;1.75;;;12.10;99.90;;;;;;5049811;28;20024;-52
2022/10/04 01:31:47;;;;;;;2.38;1.30;;;12.10;99.90;;;;;;4972479;28;20110;-52
2022/10/04 01:34:19;;;;;;;3.60;1.73;;;12.10;99.90;;;;;;4972557;28;20046;-52
2022/10/04 01:36:47;;;;;;;4.63;2.25;;;12.10;99.90;;;;;;4968474;28;20030;-52
2022/10/04 01:39:18;;;;;;;2.60;1.65;;;12.10;99.90;;;;;;4952707;28;20043;-52
2022/10/04 01:42:04;;;;;;;3.30;1.63;;;12.00;99.90;;;;;;4952361;28;20039;-53
2022/10/04 01:44:58;;;;;;;2.78;1.50;;;12.00;99.90;;;;;;4950108;28;20036;-52
2022/10/04 01:47:32;;;;;;;4.18;1.63;;;12.10;99.90;;;;;;4946520;28;20082;-52
2022/10/04 01:50:04;;;;;;;4.03;2.08;;;12.00;99.90;;;;;;4952649;28;20415;-52
2022/10/04 01:52:33;;;;;;;4.63;1.60;;;12.00;99.90;;;;;;4976916;28;20175;-52
2022/10/04 01:55:05;;;;;;;3.63;1.80;;;12.00;99.90;;;;;;4990923;28;20045;-52
2022/10/04 01:57:55;;;;;;;5.03;2.00;;;12.00;99.90;;;;;;4990572;28;20130;-52
2022/10/04 02:00:23;;;;;;;2.92;1.50;;;12.00;99.90;;;;;;4963771;28;20034;-53
2022/10/04 02:03:02;;;;;;;1.92;1.75;;;12.00;99.90;;;;;;4994185;28;20076;-52
2022/10/04 02:05:57;;;;;;;3.30;1.67;;;11.90;99.90;;;;;;4994947;28;20501;-52
2022/10/04 02:08:27;;;;;;;3.55;1.60;;;11.90;99.90;;;;;;4985066;28;20094;-52
2022/10/04 02:10:54;;;;;;;3.72;1.70;;;11.90;99.90;;;;;;5029133;28;20112;-53
2022/10/04 02:13:23;;;;;;;4.28;1.55;;;11.80;99.90;;;;;;5010534;28;20030;-52
2022/10/04 02:15:49;;;;;;;4.18;1.55;;;11.90;99.90;;;;;;5034251;28;20112;-52
2022/10/04 02:18:19;;;;;;;4.65;1.48;;;11.80;99.90;;;;;;5032897;28;20061;-52
2022/10/04 02:20:48;;;;;;;4.97;2.30;;;11.80;99.90;;;;;;5016361;28;20512;-53
2022/10/04 02:23:17;;;;;;;3.10;1.55;;;11.80;99.90;;;;;;5034246;28;20041;-52
2022/10/04 02:25:43;;;;;;;3.72;1.80;;;11.80;99.90;;;;;;5033487;28;20124;-52
2022/10/04 02:28:11;;;;;;;5.35;2.20;;;11.80;99.90;;;;;;5033005;28;20537;-52
2022/10/04 02:30:39;;;;;;;4.38;1.73;;;11.80;99.90;;;;;;5034270;28;20037;-52
2022/10/04 02:33:05;;;;;;;4.90;1.80;;;11.80;99.90;;;;;;5033300;28;20068;-52
2022/10/04 02:35:34;;;;;;;2.63;1.50;;;11.80;99.90;;;;;;5033809;28;20029;-52
2022/10/04 02:38:07;;;;;;;5.88;1.42;;;11.80;99.90;;;;;;5033270;28;20095;-52
2022/10/04 02:40:57;;;;;;;3.70;1.63;;;11.80;99.90;;;;;;5033908;28;20033;-52
2022/10/04 02:43:31;;;;;;;3.67;1.30;;;11.80;99.90;;;;;;4999568;28;20048;-52
2022/10/04 02:46:19;;;;;;;3.40;1.40;;;11.80;99.90;;;;;;5068876;28;20091;-53
2022/10/04 02:48:57;;;;;;;2.00;1.33;;;11.80;99.90;;;;;;5075236;28;20024;-52
2022/10/04 02:51:42;;;;;;;2.42;1.92;;;11.70;99.90;;;;;;5075014;28;20074;-52
2022/10/04 02:54:32;;;;;;;3.33;1.50;;;11.70;99.90;;;;;;5075923;28;20056;-53
2022/10/04 02:56:59;;;;;;;4.88;1.50;;;11.70;99.90;;;;;;5074362;28;20027;-52
2022/10/04 02:59:26;;;;;;;3.90;1.42;;;11.80;99.90;;;;;;5075103;28;20033;-53
2022/10/04 03:01:54;;;;;;;3.67;1.65;;;11.80;99.90;;;;;;5068033;28;20040;-53
2022/10/04 03:04:24;;;;;;;4.40;1.52;;;11.70;99.90;;;;;;5073992;28;20030;-52
2022/10/04 03:06:52;;;;;;;7.03;1.70;;;11.70;99.90;;;;;;5074925;28;20025;-52
2022/10/04 03:09:22;;;;;;;3.38;1.33;;;11.70;99.90;;;;;;5074133;28;20495;-52
2022/10/04 03:11:50;;;;;;;3.45;1.42;;;11.70;99.90;;;;;;5074511;28;20103;-53
2022/10/04 03:14:22;;;;;;;3.22;1.60;;;11.70;99.90;;;;;;5074269;28;20028;-52
2022/10/04 03:16:52;;;;;;;;;;;11.70;99.90;;;;;;5074720;28;20430;-52
2022/10/04 03:19:22;;;;;;;3.40;1.55;;;11.70;99.90;;;;;;5073133;28;19908;-52
2022/10/04 03:21:52;;;;;;;4.47;1.70;;;11.70;99.90;;;;;;5073286;28;20119;-52
2022/10/04 03:24:45;;;;;;;5.18;1.67;;;11.70;99.90;;;;;;5074947;28;20103;-52
2022/10/04 03:27:20;;;;;;;3.53;1.50;;;11.60;99.90;;;;;;5072911;28;20380;-53
2022/10/04 03:29:48;;;;;;;6.43;1.80;;;11.60;99.90;;;;;;5074190;28;20036;-52
2022/10/04 03:32:17;;;;;;;2.60;1.60;;;11.60;99.90;;;;;;5074435;28;20028;-53
2022/10/04 03:34:56;;;;;;;3.65;1.50;;;11.60;99.90;;;;;;5074843;28;20488;-52
2022/10/04 03:37:24;;;;;;;5.25;1.73;;;11.60;99.90;;;;;;5074724;28;20020;-53
2022/10/04 03:39:53;;;;;;;6.05;1.50;;;11.50;99.90;;;;;;5072884;28;20346;-52
2022/10/04 03:42:35;;;;;;;5.85;1.48;;;11.50;99.90;;;;;;5073945;28;20346;-52
2022/10/04 03:45:05;;;;;;;8.75;1.83;;;11.50;99.90;;;;;;5073611;28;20035;-53
2022/10/04 03:47:41;;;;;;;5.25;3.50;;;11.50;99.90;;;;;;5055331;28;20033;-52
2022/10/04 03:50:28;;;;;;;3.13;1.60;;;11.60;99.90;;;;;;5054397;28;20043;-53
2022/10/04 03:53:00;;;;;;;3.53;1.73;;;11.50;99.90;;;;;;5073983;28;20428;-52
2022/10/04 03:55:43;;;;;;;5.15;1.70;;;11.50;99.90;;;;;;5070518;28;20039;-52
2022/10/04 03:58:11;;;;;;;3.15;1.58;;;11.60;99.90;;;;;;5073334;28;20025;-52
2022/10/04 04:00:44;;;;;;;2.78;1.85;;;11.30;99.90;;;;;;5074123;28;20024;-52
2022/10/04 04:03:19;;;;;;;2.63;1.60;;;11.40;99.90;;;;;;5073602;28;20039;-52
2022/10/04 04:05:52;;;;;;;3.85;1.98;;;11.40;99.90;;;;;;5074068;28;20111;-52
2022/10/04 04:08:33;;;;;;;5.05;1.58;;;11.40;99.90;;;;;;5073979;28;20028;-53
2022/10/04 04:11:03;;;;;;;2.60;1.63;;;11.40;99.90;;;;;;5071568;28;20020;-52
2022/10/04 04:13:44;;;;;;;2.72;1.92;;;11.50;99.90;;;;;;5070150;28;20044;-53
2022/10/04 04:16:11;;;;;;;3.85;1.90;;;11.50;99.90;;;;;;5073868;28;20031;-52
2022/10/04 04:18:42;;;;;;;4.15;1.52;;;11.60;99.90;;;;;;5055893;28;20060;-52
2022/10/04 04:21:09;;;;;;;5.88;2.00;;;11.60;99.90;;;;;;5071494;28;20082;-53
2022/10/04 04:23:38;;;;;;;3.45;1.77;;;11.50;99.90;;;;;;5068520;28;20483;-52
2022/10/04 04:26:26;;;;;;;3.75;2.08;;;11.50;99.90;;;;;;5073178;28;20434;-52
2022/10/04 04:29:04;;;;;;;4.28;1.85;;;11.60;99.90;;;;;;5073398;28;20484;-53
2022/10/04 04:31:51;;;;;;;3.47;1.70;;;11.50;99.90;;;;;;5070001;28;20035;-52
2022/10/04 04:34:33;;;;;;;4.43;2.28;;;11.50;99.90;;;;;;5073469;28;20028;-52
2022/10/04 04:37:01;;;;;;;5.28;1.90;;;11.50;99.90;;;;;;5071425;28;20074;-52
2022/10/04 04:39:38;;;;;;;5.65;1.70;;;11.50;99.90;;;;;;5054182;28;20468;-52
2022/10/04 04:42:10;;;;;;;4.38;1.60;;;11.60;99.90;;;;;;5072076;28;20040;-52
2022/10/04 04:44:48;;;;;;;5.47;1.70;;;11.60;99.90;;;;;;5068174;28;20766;-52
2022/10/04 04:47:30;;;;;;;3.70;1.92;;;11.60;99.90;;;;;;5072523;28;20032;-53
2022/10/04 04:50:01;;;;;;;5.50;1.90;;;11.50;99.90;;;;;;5072214;28;20032;-52
2022/10/04 04:52:28;;;;;;;4.35;1.70;;;11.60;99.90;;;;;;5072532;28;20039;-52
2022/10/04 04:54:54;;;;;;;2.60;1.75;;;11.50;99.90;;;;;;5038336;28;20383;-52
2022/10/04 04:57:21;;;;;;;2.95;1.60;;;11.60;99.90;;;;;;5064613;28;20052;-52
2022/10/04 04:59:52;;;;;;;4.10;1.95;;;11.60;99.90;;;;;;5070912;28;20032;-52
2022/10/04 05:02:53;;;;;;;4.03;1.73;;;11.60;99.90;;;;;;5072284;28;20060;-52
2022/10/04 05:05:26;;;;;;;3.33;1.52;;;11.70;99.90;;;;;;4991623;28;20038;-52
2022/10/04 05:08:23;;;;;;;4.50;1.50;;;11.70;99.90;;;;;;4991490;28;20046;-52
2022/10/04 05:10:57;;;;;;;4.10;1.77;;;11.70;99.90;;;;;;4914377;29;20036;-52
2022/10/04 05:13:33;;;;;;;4.13;1.60;;;11.80;99.90;;;;;;4907574;29;20054;-52
2022/10/04 05:16:00;;;;;;;3.30;1.60;;;11.80;99.90;;;;;;4915568;29;20032;-52
2022/10/04 05:18:32;;;;;;;3.83;2.03;;;11.90;99.90;;;;;;4919701;29;20147;-52
2022/10/04 05:21:12;;;;;;;6.35;1.85;;;11.90;99.90;;;;;;4913834;29;20574;-52
2022/10/04 05:23:38;;;;;;;5.53;1.98;;;11.90;99.90;;;;;;4911937;29;20130;-52
2022/10/04 05:26:09;;;;;;;2.90;1.40;;;11.90;99.90;;;;;;4913475;29;20484;-53
2022/10/04 05:28:35;;;;;;;3.83;1.50;;;12.00;99.90;;;;;;4912475;29;20039;-52
2022/10/04 05:31:29;;;;;;;4.88;2.22;;;12.00;99.90;;;;;;4899329;29;20039;-52
2022/10/04 05:33:57;;;;;;;4.57;1.70;;;12.10;99.90;;;;;;4909516;29;20039;-52
2022/10/04 05:36:44;;;;;;;4.47;1.85;;;12.20;99.90;;;;;;4913646;29;20039;-53
2022/10/04 05:39:35;;;;;;;4.38;2.60;;;12.30;99.90;;;;;;4913147;29;20789;-53
2022/10/04 05:42:06;;;;;;;6.18;1.75;;;12.40;99.90;;;;;;4992799;28;20429;-54
2022/10/04 05:44:45;;;;;;;3.60;1.70;;;12.50;99.90;;;;;;4989258;28;20120;-53
2022/10/04 05:47:13;;;;;;;3.28;1.50;;;12.60;99.90;;;;;;5029355;28;20048;-53
2022/10/04 05:49:45;;;;;;;3.35;1.77;;;12.70;99.90;;;;;;5065220;28;20094;-52
2022/10/04 05:52:50;;;;;;;5.45;1.73;;;12.90;99.90;;;;;;5066535;28;20361;-52
2022/10/04 05:55:39;;;;;;;3.33;1.90;;;13.10;99.90;;;;;;5001547;28;20030;-52
2022/10/04 05:58:16;;;;;;;4.68;1.50;;;13.30;99.90;;;;;;4998463;28;20029;-52
2022/10/04 06:01:22;;;;;;;2.70;1.75;;;13.40;99.90;;;;;;4998460;28;20070;-52
2022/10/04 06:04:15;;;;;;;4.60;1.55;;;13.70;99.90;;;;;;4948782;29;20083;-53
2022/10/04 06:07:19;;;;;;;2.88;1.60;;;13.90;99.90;;;;;;4949639;28;20098;-53
2022/10/04 06:09:44;;;;;;;5.50;1.42;;;14.10;99.90;;;;;;4937623;28;20059;-53
2022/10/04 06:12:32;;;;;;;3.28;1.58;;;14.40;99.90;;;;;;4948084;28;20479;-53
2022/10/04 06:15:05;;;;;;;3.92;1.52;;;14.60;99.90;;;;;;4943956;28;20561;-56
2022/10/04 06:17:46;;;;;;;4.90;2.50;;;14.80;99.90;;;;;;4948956;28;20044;-55
2022/10/04 06:20:26;;;;;;;2.42;1.50;;;15.20;99.90;;;;;;4951893;28;20418;-52
2022/10/04 06:22:59;;;;;;;3.67;1.58;;;15.50;99.90;;;;;;4949955;29;20043;-52
2022/10/04 06:25:38;;;;;;;3.50;1.77;;;15.80;99.90;;;;;;4964128;28;20038;-50
2022/10/04 06:28:24;;;;;;;6.03;2.08;;;15.90;99.90;;;;;;5000635;28;20038;-57
2022/10/04 06:30:56;;;;;;;4.00;2.03;;;;;;;;;;5003763;28;20517;-50
2022/10/04 06:33:32;;;;;;;;;;;17.00;99.90;;;;;;4982636;28;20113;-53
2022/10/04 06:36:17;;;;;;;7.97;2.05;;;17.30;99.90;;;;;;5003055;28;19909;-53
2022/10/04 06:39:14;;;;;;;5.50;1.67;;;17.60;99.90;;;;;;4999810;28;20034;-54
2022/10/04 06:41:46;;;;;;;4.18;1.50;;;;;;;;;;4978003;28;20066;-52
2022/10/04 06:44:20;;;;;;;2.83;1.75;;;17.90;99.90;;;;;;5008823;28;20042;-50
2022/10/04 06:46:57;;;;;;;4.80;1.67;;;18.10;99.90;;;;;;5026327;28;20041;-52
2022/10/04 06:49:32;;;;;;;3.53;1.63;;;18.40;99.90;;;;;;5033164;28;20035;-51
2022/10/04 06:52:27;;;;;;;2.92;1.30;;;18.50;99.90;;;;;;5031437;28;20034;-51
2022/10/04 06:55:07;;;;;;;3.53;1.67;;;;;;;;;;5033285;28;20094;-53
2022/10/04 06:58:08;;;;;;;4.30;1.88;;;19.40;99.90;;;;;;5034521;28;20445;-49
2022/10/04 07:00:47;;;;;;;4.68;1.83;;;19.40;99.90;;;;;;5031142;28;20072;-49
2022/10/04 07:03:48;;;;;;;5.47;1.42;;;19.40;99.90;;;;;;5030860;28;20044;-51
2022/10/04 07:06:18;;;;;;;5.10;1.70;;;;;;;;;;4990731;28;20117;-52
2022/10/04 07:08:50;;;;;;;3.97;1.52;;;20.90;99.90;;;;;;4992118;28;20045;-48
2022/10/04 07:11:41;;;;;;;2.88;1.30;;;21.70;99.90;;;;;;4993591;28;20030;-49
2022/10/04 07:14:13;;;;;;;4.07;1.80;;;;;;;;;;5013752;28;20065;-48
2022/10/04 07:16:53;;;;;;;6.28;1.75;;;22.20;99.90;;;;;;5014195;28;20517;-48
2022/10/04 07:19:19;;;;;;;3.38;1.80;;;22.60;99.90;;;;;;5013725;28;20414;-49
2022/10/04 07:21:45;;;;;;;5.13;1.85;;;;;;;;;;5014020;28;20030;-49
2022/10/04 07:24:17;;;;;;;3.47;1.52;;;23.80;99.90;;;;;;5013610;28;20042;-52
2022/10/04 07:26:48;;;;;;;5.00;1.45;;;;;;;;;;5013945;28;20034;-50
2022/10/04 07:29:27;;;;;;;4.23;1.40;;;;;;;;;;4997666;28;20038;-53
2022/10/04 07:32:05;;;;;;;5.05;1.45;;;;;;;;;;4964238;28;20356;-50
2022/10/04 07:34:34;;;;;;;3.97;1.65;;;;;;;;;;5006085;28;20483;-51
2022/10/04 07:37:06;;;;;;;5.05;1.60;;;;;;;;;;5008855;28;20488;-52
2022/10/04 07:39:32;;;;;;;;;;;;;;;;;;5013104;28;20026;-50
2022/10/04 07:42:17;;;;;;;3.55;1.45;;;26.90;95.10;;;;;;5022013;28;19923;-51
2022/10/04 07:44:47;;;;;;;4.32;1.67;;;;;;;;;;5071302;28;20536;-49
2022/10/04 07:47:13;;;;;;;3.25;1.65;;;;;;;;;;5068453;28;20137;-50
2022/10/04 07:49:39;;;;;;;5.40;1.70;;;25.60;99.20;;;;;;5069282;28;20028;-49
2022/10/04 07:52:33;;;;;;;4.43;1.58;;;25.40;98.40;;;;;;5067406;28;20024;-51
2022/10/04 07:55:27;;;;;;;4.65;1.50;;;25.90;97.00;;;;;;5036083;28;20055;-51
2022/10/04 07:58:16;;;;;;;3.05;1.40;;;;;;;;;;5071504;28;20537;-52
2022/10/04 08:00:57;;;;;;;6.32;2.15;;;;;;;;;;5050994;28;20043;-53
2022/10/04 08:03:34;;;;;;;2.67;1.40;;;;;;;;;;5072590;28;20487;-50
2022/10/04 08:06:38;;;;;;;1.92;1.30;;;23.60;99.90;;;;;;5073109;28;20033;-50
2022/10/04 08:09:23;;;;;;;3.53;1.60;;;23.20;94.10;;;;;;5028608;28;20057;-52
2022/10/04 08:12:16;;;;;;;4.72;1.65;;;23.30;98.20;;;;;;5027006;28;20041;-52
2022/10/04 08:15:00;;;;;;;1.67;1.27;;;;;;;;;;5026266;28;20052;-51
2022/10/04 08:17:32;;;;;;;4.18;1.40;;;;;;;;;;5024943;28;20030;-53
2022/10/04 08:20:03;;;;;;;;;;;25.10;94.90;;;;;;5027835;28;20116;-52
2022/10/04 08:22:31;;;;;;;3.10;1.65;;;;;;;;;;5030055;28;20396;-51
2022/10/04 08:25:03;;;;;;;2.33;1.20;;;25.60;99.90;;;;;;5027335;28;20504;-50
2022/10/04 08:31:01;;;;;;;3.30;1.42;;;;;;;;;;5029258;28;21318;-51
2022/10/04 08:33:54;;;;;;;3.13;1.70;;;24.90;93.20;;;;;;4951755;29;20401;-52
2022/10/04 08:36:43;;;;;;;3.20;1.60;;;25.30;96.00;;;;;;4951528;29;20032;-51
2022/10/04 08:39:20;;;;;;;4.70;1.40;;;;;;;;;;4952294;29;20040;-53
2022/10/04 08:42:04;;;;;;;2.20;1.20;;;;;;;;;;4946562;29;20621;-52
2022/10/04 08:44:49;;;;;;;6.20;2.13;;;;;;;;;;4962136;28;20169;-52
2022/10/04 08:47:38;;;;;;;3.05;1.60;;;;;;;;;;4990331;28;20034;-50
2022/10/04 08:50:40;;;;;;;3.60;1.38;;;26.10;99.00;;;;;;4984452;28;20625;-50
2022/10/04 08:53:06;;;;;;;;;;;;;;;;;;4988950;28;20034;-50
2022/10/04 08:55:33;;;;;;;3.25;1.30;;;;;;;;;;4989899;28;20416;-51
2022/10/04 08:58:14;;;;;;;6.82;1.83;;;29.90;89.80;;;;;;4986284;28;20038;-53
2022/10/04 09:01:03;;;;;;;3.35;1.52;;;;;;;;;;4991557;28;20118;-51
2022/10/04 09:03:41;;;;;;;3.20;1.25;;;26.10;89.00;;;;;;4972431;28;20046;-53
2022/10/04 09:06:09;;;;;;;2.47;1.27;;;25.20;94.80;;;;;;4971175;28;20125;-53
2022/10/04 09:08:54;;;;;;;3.78;1.40;;;;;;;;;;4970749;28;20475;-53
2022/10/04 09:11:47;;;;;;;6.43;1.95;;;23.10;92.70;;;;;;5037341;28;20542;-51
2022/10/04 09:14:55;;;;;;;5.20;1.38;;;23.30;92.80;;;;;;5050014;28;20045;-51
2022/10/04 09:17:51;;;;;;;4.40;1.38;;;23.80;93.00;;;;;;5044515;28;20032;-53
2022/10/04 09:20:33;;;;;;;2.47;1.00;;;;;;;;;;4990805;28;20063;-53
2022/10/04 09:23:17;;;;;;;3.65;1.20;;;21.40;94.30;;;;;;5045067;28;20037;-54
2022/10/04 09:26:14;;;;;;;3.75;1.38;;;21.50;94.10;;;;;;5047091;28;20488;-53
2022/10/04 09:29:04;;;;;;;5.10;1.73;;;22.60;94.40;;;;;;5012141;28;20045;-52
2022/10/04 09:31:47;;;;;;;3.53;1.00;;;24.40;93.80;;;;;;5046443;28;20032;-53
2022/10/04 09:34:32;;;;;;;4.40;1.40;;;24.10;92.60;;;;;;5047765;28;20111;-53
2022/10/04 09:37:15;;;;;;;4.28;1.50;;;23.30;93.50;;;;;;5042017;28;20481;-53
2022/10/04 09:40:24;;;;;;;3.42;1.30;;;23.10;93.50;;;;;;5044169;28;20032;-52
2022/10/04 09:43:09;;;;;;;2.22;1.63;;;23.00;94.20;;;;;;5066144;28;20441;-53
2022/10/04 09:46:15;;;;;;;3.38;1.30;;;22.10;93.90;;;;;;5064591;28;20021;-53
2022/10/04 09:49:01;;;;;;;4.43;1.35;;;23.00;94.70;;;;;;5070598;28;20071;-53
2022/10/04 09:51:47;;;;;;;4.18;1.08;;;23.10;93.40;;;;;;5069394;28;20031;-53
2022/10/04 09:54:26;;;;;;;1.67;1.13;;;22.90;93.40;;;;;;5072285;28;20087;-51
2022/10/04 09:57:13;;;;;;;2.15;1.00;;;22.30;94.10;;;;;;5071303;28;20428;-54
2022/10/04 10:00:00;;;;;;;3.25;1.30;;;21.80;93.80;;;;;;5071673;28;20428;-51
2022/10/04 10:02:49;;;;;;;7.78;1.90;;;21.60;94.90;;;;;;5071152;28;20090;-51
2022/10/04 10:05:30;;;;;;;3.35;1.70;;;22.60;94.90;;;;;;5068809;28;20039;-52
2022/10/04 10:07:58;;;;;;;2.88;1.35;;;23.40;94.50;;;;;;5068691;28;20031;-52
2022/10/04 10:13:38;;;;;;;2.53;1.45;;;;;;;;;;5071849;28;20031;-54
2022/10/04 10:16:17;;;;;;;2.67;1.17;;;;;;;;;;5069994;28;20464;-52
2022/10/04 10:18:58;;;;;;;2.00;0.90;;;25.40;91.80;;;;;;5071931;28;20145;-53
2022/10/04 10:21:26;;;;;;;4.25;1.55;;;;;;;;;;5072103;28;20073;-53
2022/10/04 10:23:59;;;;;;;3.15;1.70;;;;;;;;;;5053115;28;20045;-54
2022/10/04 10:26:43;;;;;;;3.00;1.10;;;;;;;;;;5069340;28;20483;-53
2022/10/04 10:29:28;;;;;;;1.80;1.20;;;;;;;;;;5058547;28;20032;-51
2022/10/04 10:32:15;;;;;;;2.58;1.75;;;22.40;99.90;;;;;;5072588;28;20028;-52
2022/10/04 10:35:14;;;;;;;3.03;2.05;;;23.30;94.20;;;;;;5071149;28;20456;-53
2022/10/04 10:37:48;;;;;;;5.55;2.30;;;;;;;;;;5072947;28;20047;-53
2022/10/04 10:40:20;;;;;;;1.73;1.45;;;24.50;93.00;;;;;;5069876;28;20021;-51
2022/10/04 10:43:27;;;;;;;1.77;1.02;;;25.70;92.70;;;;;;5067951;28;20024;-54
2022/10/04 10:46:06;;;;;;;7.53;4.25;;;25.00;90.60;;;;;;5065442;28;20036;-54
2022/10/04 10:48:51;;;;;;;3.53;1.58;;;25.70;92.80;;;;;;5055011;28;20598;-53
2022/10/04 10:51:29;;;;;;;4.05;1.83;;;26.40;91.30;;;;;;5071800;28;20032;-52
2022/10/04 10:54:33;;;;;;;2.08;1.25;;;25.80;90.60;;;;;;5071866;28;20068;-53
2022/10/04 10:57:36;;;;;;;7.25;2.38;;;25.70;90.70;;;;;;5074768;28;20047;-51
2022/10/04 11:00:22;;;;;;;4.13;1.20;;;25.80;90.40;;;;;;5054053;28;20048;-52
2022/10/04 11:02:48;;;;;;;1.10;0.90;;;;;;;;;;5072929;28;20056;-51
2022/10/04 11:05:29;;;;;;;1.90;1.15;;;;;;;;;;5072812;28;20111;-50
2022/10/04 11:08:04;;;;;;;3.87;1.23;;;22.70;92.20;;;;;;5072284;28;20097;-51
2022/10/04 11:10:33;;;;;;;6.65;4.07;;;;;;;;;;5069316;28;20277;-52
2022/10/04 11:13:09;;;;;;;3.75;1.80;;;21.90;94.10;;;;;;5070556;28;20027;-51
2022/10/04 11:15:39;;;;;;;3.88;1.70;;;;;;;;;;5075359;28;20032;-51
2022/10/04 11:18:16;;;;;;;4.65;2.22;;;21.20;93.50;;;;;;5072136;28;20039;-54
2022/10/04 11:21:17;;;;;;;2.72;1.50;;;22.70;93.20;;;;;;5072099;28;20024;-53
2022/10/04 11:23:47;;;;;;;3.15;1.60;;;22.70;92.40;;;;;;5074984;28;20044;-52
2022/10/04 11:26:51;;;;;;;3.60;1.50;;;22.50;92.50;;;;;;5074785;28;20036;-51
2022/10/04 11:29:38;;;;;;;4.82;1.38;;;22.10;92.90;;;;;;5070413;28;20039;-51
2022/10/04 11:32:40;;;;;;;3.22;1.27;;;22.70;94.10;;;;;;5074607;28;20036;-53
2022/10/04 11:35:19;;;;;;;2.13;1.05;;;;;;;;;;5055057;28;20040;-51
2022/10/04 11:37:56;;;;;;;4.10;1.40;;;;;;;;;;5074411;28;20445;-52
2022/10/04 11:40:38;;;;;;;2.58;1.30;;;23.10;99.30;;;;;;5073154;28;20108;-51
2022/10/04 11:43:23;;;;;;;3.97;1.35;;;;;;;;;;5074294;28;20115;-52
2022/10/04 11:46:32;;;;;;;1.90;0.75;;;24.70;91.90;;;;;;5072988;28;20039;-52
2022/10/04 11:49:10;;;;;;;3.85;1.10;;;24.10;91.30;;;;;;5073386;28;20089;-52
2022/10/04 11:51:46;;;;;;;4.32;1.27;;;23.40;91.60;;;;;;5074995;28;20120;-52
2022/10/04 11:54:39;;;;;;;2.53;1.17;;;23.80;91.80;;;;;;5073566;28;20036;-51
2022/10/04 11:57:23;;;;;;;2.22;0.95;;;24.30;91.60;;;;;;5052479;28;20065;-54
2022/10/04 12:00:19;;;;;;;1.60;1.10;;;24.60;90.80;;;;;;5047899;28;20033;-52
2022/10/04 12:02:53;;;;;;;5.15;2.28;;;24.30;91.60;;;;;;5069220;28;20502;-52
2022/10/04 12:05:25;;;;;;;4.85;1.92;;;24.20;91.90;;;;;;5068735;28;20039;-50
2022/10/04 12:07:51;;;;;;;2.75;1.02;;;24.00;92.00;;;;;;5074116;28;20027;-52
2022/10/04 12:10:27;;;;;;;7.03;3.08;;;;;;;;;;5073052;28;20392;-50
2022/10/04 12:12:53;;;;;;;2.65;1.20;;;;;;;;;;5073568;28;20050;-51
2022/10/04 12:15:21;;;;;;;3.78;1.20;;;22.80;92.20;;;;;;5073801;28;20793;-51
2022/10/04 12:17:56;;;;;;;5.25;2.20;;;22.80;92.70;;;;;;5054576;28;20048;-51
2022/10/04 12:20:34;;;;;;;3.17;1.15;;;22.80;92.40;;;;;;5073129;28;20059;-52
2022/10/04 12:23:24;;;;;;;1.35;0.90;;;22.50;93.20;;;;;;5071333;28;20086;-51
2022/10/04 12:26:06;;;;;;;3.50;1.63;;;22.10;92.70;;;;;;5073685;28;20032;-52
2022/10/04 12:28:31;;;;;;;;;;;21.80;93.10;;;;;;5073128;28;20040;-52
2022/10/04 12:31:12;;;;;;;7.18;2.25;;;21.60;93.70;;;;;;5072397;28;19957;-51
2022/10/04 12:34:04;;;;;;;3.10;2.15;;;21.40;93.70;;;;;;5072897;28;20031;-52
2022/10/04 12:36:35;;;;;;;3.33;1.30;;;21.20;93.30;;;;;;5070460;28;20020;-51
2022/10/04 12:39:28;;;;;;;3.67;1.30;;;21.10;94.00;;;;;;5072719;28;20020;-51
2022/10/04 12:41:54;;;;;;;2.70;1.27;;;;;;;;;;5071053;28;20068;-52
2022/10/04 12:44:43;;;;;;;2.67;1.20;;;20.90;99.90;;;;;;5069856;28;20059;-51
2022/10/04 12:47:24;;;;;;;6.28;3.38;;;20.80;95.60;;;;;;5072187;28;20028;-51
2022/10/04 12:50:01;;;;;;;5.07;2.28;;;20.90;95.30;;;;;;5072696;28;20032;-53
2022/10/04 12:52:39;;;;;;;2.15;1.00;;;20.90;94.50;;;;;;5054796;28;20033;-51
2022/10/04 12:55:45;;;;;;;2.00;1.17;;;20.90;94.60;;;;;;5072688;28;20035;-53
2022/10/04 12:58:23;;;;;;;2.55;1.90;;;21.00;94.70;;;;;;5070909;28;20096;-51
2022/10/04 13:00:51;;;;;;;2.67;1.17;;;21.00;94.40;;;;;;5066607;28;20048;-52
2022/10/04 13:03:32;;;;;;;1.90;1.27;;;21.00;93.90;;;;;;5049642;28;20045;-52
2022/10/04 13:06:09;;;;;;;2.63;1.20;;;21.10;94.00;;;;;;5071299;28;20020;-52
2022/10/04 13:09:13;;;;;;;4.05;1.95;;;21.10;94.10;;;;;;5052471;28;20090;-51
2022/10/04 13:12:03;;;;;;;2.65;1.10;;;21.20;94.90;;;;;;5065960;28;20116;-51
2022/10/04 13:14:35;;;;;;;3.35;1.10;;;20.70;94.40;;;;;;5066238;28;20082;-52
2022/10/04 13:17:18;;;;;;;1.50;1.05;;;;;;;;;;5052665;28;20517;-51
2022/10/04 13:20:02;;;;;;;3.15;1.20;;;20.70;94.80;;;;;;5070662;28;20062;-51
2022/10/04 13:22:37;;;;;;;5.88;1.70;;;19.90;95.00;;;;;;5069057;28;20151;-52
2022/10/04 13:25:17;;;;;;;2.55;1.10;;;19.60;95.20;;;;;;5049296;28;20097;-52
2022/10/04 13:27:52;;;;;;;3.30;1.13;;;19.30;95.60;;;;;;5049045;28;20396;-51
2022/10/04 13:30:26;;;;;;;2.88;1.00;;;19.00;96.30;;;;;;5064079;28;20043;-52
2022/10/04 13:33:25;;;;;;;2.80;1.00;;;18.80;96.70;;;;;;5071187;28;20028;-51
2022/10/04 13:35:51;;;;;;;2.58;0.90;;;18.70;96.20;;;;;;4985525;28;20030;-51
2022/10/04 13:38:44;;;;;;;2.67;1.10;;;18.60;96.00;;;;;;4989109;28;20051;-51
2022/10/04 13:41:22;;;;;;;1.52;1.00;;;18.60;97.40;;;;;;4988995;28;20466;-51
2022/10/04 13:44:22;;;;;;;2.10;1.40;;;18.70;96.80;;;;;;4971105;28;20034;-52
2022/10/04 13:46:57;;;;;;;2.85;0.85;;;18.80;96.70;;;;;;4989165;28;20034;-51
2022/10/04 13:49:54;;;;;;;1.88;0.75;;;18.70;97.00;;;;;;4988862;28;20456;-50
2022/10/04 13:59:06;;;;;;;3.03;1.23;;;18.50;97.10;;;;;;4989601;28;20085;-51
2022/10/04 14:01:51;;;;;;;1.20;0.93;;;18.60;97.70;;;;;;4990557;28;20046;-52
2022/10/04 14:04:25;;;;;;;3.42;1.00;;;18.50;97.40;;;;;;4989166;28;20050;-51
2022/10/04 14:07:29;;;;;;;6.30;1.13;;;18.50;97.60;;;;;;4988979;28;20612;-52
2022/10/04 14:10:27;;;;;;;1.45;0.82;;;18.70;97.80;;;;;;4986700;28;20061;-52
2022/10/04 14:12:55;;;;;;;2.55;1.63;;;18.90;98.20;;;;;;5024530;28;20052;-52
2022/10/04 14:15:47;;;;;;;3.50;1.00;;;19.00;98.00;;;;;;5064049;28;20282;-51
2022/10/04 14:18:34;;;;;;;1.98;1.20;;;18.90;98.30;;;;;;5009464;28;20041;-51
2022/10/04 14:21:45;;;;;;;3.60;1.00;;;18.90;97.70;;;;;;4977460;28;20038;-51